createdAt,value
2018-08-23T00:00:38.757Z,33.90
2018-08-23T00:03:15.617Z,34.63
2018-08-23T00:05:50.030Z,34.03
2018-08-23T00:08:18.932Z,32.83
2018-08-23T00:10:48.301Z,33.27
2018-08-23T00:13:17.078Z,31.77
2018-08-23T00:15:45.747Z,31.60
2018-08-23T00:18:14.602Z,34.47
2018-08-23T00:20:43.265Z,34.30
2018-08-23T00:23:11.922Z,33.30
2018-08-23T00:25:40.607Z,33.40
2018-08-23T00:28:09.406Z,34.43
2018-08-23T00:30:38.082Z,34.50
2018-08-23T00:33:07.002Z,34.90
2018-08-23T00:35:37.566Z,34.10
2018-08-23T00:38:06.969Z,33.70
2018-08-23T00:40:42.434Z,33.50
2018-08-23T00:43:12.277Z,33.13
2018-08-23T00:45:40.953Z,32.50
2018-08-23T00:48:09.610Z,32.60
2018-08-23T00:50:54.329Z,33.77
2018-08-23T00:53:22.994Z,33.60
2018-08-23T00:56:07.498Z,33.20
2018-08-23T00:58:36.158Z,31.77
2018-08-23T01:01:05.373Z,33.53
2018-08-23T01:03:35.282Z,36.07
2018-08-23T01:06:04.182Z,35.50
2018-08-23T01:08:32.847Z,34.93
2018-08-23T01:11:01.956Z,36.60
2018-08-23T01:13:30.610Z,34.17
2018-08-23T01:15:59.266Z,34.77
2018-08-23T01:18:27.913Z,36.03
2018-08-23T01:20:56.578Z,35.00
2018-08-23T01:23:25.235Z,35.40
2018-08-23T01:25:53.903Z,37.93
2018-08-23T01:28:22.557Z,38.30
2018-08-23T01:30:51.219Z,37.47
2018-08-23T01:33:21.061Z,40.00
2018-08-23T01:35:50.790Z,38.77
2018-08-23T01:38:19.455Z,40.10
2018-08-23T01:40:48.113Z,41.60
2018-08-23T01:43:17.188Z,41.83
2018-08-23T01:45:45.845Z,42.47
2018-08-23T01:48:14.609Z,42.80
2018-08-23T01:50:43.266Z,44.37
2018-08-23T01:53:11.952Z,45.03
2018-08-23T01:55:40.590Z,45.07
2018-08-23T01:58:09.257Z,44.67
2018-08-23T02:00:37.911Z,43.37
2018-08-23T02:03:06.582Z,45.47
2018-08-23T02:05:37.541Z,46.40
2018-08-23T02:08:07.365Z,50.07
2018-08-23T02:10:36.021Z,47.87
2018-08-23T02:13:09.666Z,49.27
2018-08-23T02:15:43.825Z,47.23
2018-08-23T02:18:12.477Z,46.13
2018-08-23T02:20:41.134Z,48.50
2018-08-23T02:23:09.798Z,51.60
2018-08-23T02:25:38.458Z,47.67
2018-08-23T02:28:09.742Z,47.40
2018-08-23T02:30:52.590Z,49.03
2018-08-23T02:33:21.250Z,50.40
2018-08-23T02:36:03.705Z,48.30
2018-08-23T02:38:32.423Z,47.63
2018-08-23T02:41:01.077Z,50.17
2018-08-23T02:43:29.741Z,49.20
2018-08-23T02:45:58.781Z,49.57
2018-08-23T02:48:27.442Z,51.83
2018-08-23T02:50:56.093Z,51.97
2018-08-23T02:53:34.509Z,53.20
2018-08-23T02:56:05.216Z,50.80
2018-08-23T02:58:36.209Z,54.50
2018-08-23T03:01:05.458Z,51.53
2018-08-23T03:03:34.877Z,53.17
2018-08-23T03:06:03.533Z,54.10
2018-08-23T03:08:43.234Z,52.70
2018-08-23T03:11:11.925Z,52.40
2018-08-23T03:13:43.852Z,51.07
2018-08-23T03:16:13.018Z,53.20
2018-08-23T03:18:41.677Z,55.87
2018-08-23T03:21:10.336Z,54.80
2018-08-23T03:23:39.001Z,56.00
2018-08-23T03:26:07.663Z,57.03
2018-08-23T03:28:36.326Z,57.33
2018-08-23T03:33:39.995Z,53.80
2018-08-23T03:36:08.650Z,56.30
2018-08-23T03:38:37.322Z,56.83
2018-08-23T03:41:05.991Z,57.00
2018-08-23T03:43:34.657Z,57.23
2018-08-23T03:46:03.326Z,57.60
2018-08-23T03:48:32.126Z,56.23
2018-08-23T03:51:01.605Z,58.20
2018-08-23T03:53:51.387Z,54.37
2018-08-23T03:56:20.042Z,54.20
2018-08-23T03:58:48.710Z,51.80
2018-08-23T04:01:17.376Z,52.67
2018-08-23T04:03:46.046Z,50.33
2018-08-23T04:06:24.797Z,52.17
2018-08-23T04:08:53.564Z,53.17
2018-08-23T04:11:22.273Z,52.50
2018-08-23T04:13:50.958Z,53.47
2018-08-23T04:16:25.143Z,50.50
2018-08-23T04:18:53.881Z,52.77
2018-08-23T04:21:22.542Z,52.77
2018-08-23T04:23:51.219Z,53.43
2018-08-23T04:26:20.430Z,53.10
2018-08-23T04:28:49.131Z,55.57
2018-08-23T04:31:17.826Z,52.27
2018-08-23T04:33:46.506Z,54.20
2018-08-23T04:36:28.441Z,56.87
2018-08-23T04:39:02.368Z,56.67
2018-08-23T04:41:31.957Z,52.67
2018-08-23T04:44:16.072Z,53.07
2018-08-23T04:46:44.772Z,49.97
2018-08-23T04:49:13.523Z,52.33
2018-08-23T04:51:42.315Z,54.60
2018-08-23T04:54:10.974Z,52.73
2018-08-23T04:56:39.629Z,53.97
2018-08-23T04:59:08.294Z,55.43
2018-08-23T05:01:36.951Z,54.80
2018-08-23T05:04:05.712Z,53.77
2018-08-23T05:06:34.316Z,57.57
2018-08-23T05:09:03.014Z,55.63
2018-08-23T05:11:31.688Z,60.10
2018-08-23T05:14:00.415Z,61.47
2018-08-23T05:16:29.034Z,60.93
2018-08-23T05:18:57.727Z,58.30
2018-08-23T05:21:26.377Z,58.63
2018-08-23T05:23:59.530Z,58.40
2018-08-23T05:26:28.290Z,59.97
2018-08-23T05:29:04.138Z,57.53
2018-08-23T05:31:33.430Z,56.90
2018-08-23T05:34:03.466Z,58.60
2018-08-23T05:36:32.129Z,57.10
2018-08-23T05:39:01.082Z,57.90
2018-08-23T05:41:29.733Z,57.50
2018-08-23T05:44:07.834Z,57.10
2018-08-23T05:46:38.821Z,59.20
2018-08-23T05:49:08.053Z,59.37
2018-08-23T05:51:40.026Z,56.20
2018-08-23T05:54:08.682Z,59.47
2018-08-23T05:56:37.526Z,59.60
2018-08-23T05:59:11.565Z,58.10
2018-08-23T06:01:40.299Z,59.90
2018-08-23T06:04:09.002Z,59.40
2018-08-23T06:06:37.669Z,62.07
2018-08-23T06:09:10.727Z,61.67
2018-08-23T06:11:39.626Z,60.43
2018-08-23T06:14:08.320Z,63.93
2018-08-23T06:16:38.798Z,62.30
2018-08-23T06:19:07.454Z,64.20
2018-08-23T06:21:36.118Z,60.70
2018-08-23T06:24:05.915Z,65.43
2018-08-23T06:26:43.533Z,62.27
2018-08-23T06:29:17.661Z,63.83
2018-08-23T06:31:56.498Z,65.00
2018-08-23T06:34:26.214Z,60.97
2018-08-23T06:36:54.949Z,60.40
2018-08-23T06:39:23.601Z,60.13
2018-08-23T06:41:57.017Z,61.67
2018-08-23T06:44:41.086Z,63.83
2018-08-23T06:47:11.558Z,61.90
2018-08-23T06:49:41.253Z,61.80
2018-08-23T06:52:11.366Z,61.20
2018-08-23T06:54:40.382Z,61.80
2018-08-23T06:57:09.406Z,60.67
2018-08-23T06:59:38.602Z,61.33
2018-08-23T07:02:07.274Z,60.67
2018-08-23T07:04:35.929Z,60.10
2018-08-23T07:07:04.724Z,66.67
2018-08-23T07:09:37.760Z,58.37
2018-08-23T07:12:11.918Z,61.23
2018-08-23T07:14:40.575Z,59.90
2018-08-23T07:17:16.976Z,62.57
2018-08-23T07:19:46.333Z,61.27
2018-08-23T07:22:18.930Z,60.90
2018-08-23T07:24:48.542Z,63.60
2018-08-23T07:27:18.474Z,62.00
2018-08-23T07:29:48.484Z,60.10
2018-08-23T07:32:18.363Z,59.47
2018-08-23T07:34:52.757Z,58.73
2018-08-23T07:37:21.879Z,60.80
2018-08-23T07:39:56.301Z,59.30
2018-08-23T07:42:27.373Z,56.87
2018-08-23T07:44:56.579Z,59.57
2018-08-23T07:47:25.448Z,57.47
2018-08-23T07:49:55.503Z,55.63
2018-08-23T07:52:24.882Z,52.37
2018-08-23T07:54:53.608Z,54.87
2018-08-23T07:57:22.242Z,54.37
2018-08-23T07:59:55.149Z,53.30
2018-08-23T08:02:23.846Z,48.40
2018-08-23T08:04:52.490Z,46.80
2018-08-23T08:07:26.666Z,48.07
2018-08-23T08:09:55.857Z,46.67
2018-08-23T08:12:36.310Z,48.83
2018-08-23T08:15:06.249Z,46.53
2018-08-23T08:17:34.976Z,41.90
2018-08-23T08:20:05.781Z,41.07
2018-08-23T08:22:34.498Z,38.87
2018-08-23T08:25:09.054Z,43.20
2018-08-23T08:27:38.474Z,35.53
2018-08-23T08:30:09.621Z,33.50
2018-08-23T08:32:38.276Z,33.33
2018-08-23T08:35:11.171Z,31.97
2018-08-23T08:37:40.074Z,34.77
2018-08-23T08:40:13.126Z,36.53
2018-08-23T08:42:41.945Z,36.70
2018-08-23T08:45:11.343Z,38.23
2018-08-23T08:47:42.705Z,35.30
2018-08-23T08:50:11.356Z,35.23
2018-08-23T08:52:40.014Z,38.20
2018-08-23T08:55:10.033Z,31.97
2018-08-23T08:57:43.786Z,36.43
2018-08-23T09:00:12.410Z,29.97
2018-08-23T09:02:41.150Z,33.63
2018-08-23T09:05:10.365Z,28.43
2018-08-23T09:07:40.606Z,29.70
2018-08-23T09:10:09.261Z,26.83
2018-08-23T09:12:43.264Z,27.30
2018-08-23T09:15:11.914Z,26.47
2018-08-23T09:17:43.298Z,25.30
2018-08-23T09:20:14.234Z,25.07
2018-08-23T09:22:47.149Z,27.50
2018-08-23T09:25:25.358Z,27.00
2018-08-23T09:27:54.032Z,27.17
2018-08-23T09:30:26.530Z,26.87
2018-08-23T09:32:55.461Z,25.47
2018-08-23T09:35:29.886Z,27.30
2018-08-23T09:37:59.734Z,28.23
2018-08-23T09:40:29.027Z,23.87
2018-08-23T09:42:58.566Z,22.33
2018-08-23T09:45:27.211Z,21.97
2018-08-23T09:47:55.866Z,17.23
2018-08-23T09:50:24.520Z,13.80
2018-08-23T09:52:53.173Z,15.80
2018-08-23T09:55:24.706Z,14.10
2018-08-23T09:57:53.365Z,24.40
2018-08-23T10:00:27.362Z,21.47
2018-08-23T10:03:01.470Z,24.83
2018-08-23T10:05:35.622Z,20.48
2018-08-23T10:08:09.758Z,22.00
2018-08-23T10:10:43.877Z,22.27
2018-08-23T10:13:17.834Z,22.45
2018-08-23T10:15:51.873Z,19.60
2018-08-23T10:18:27.078Z,21.05
2018-08-23T10:20:59.852Z,19.77
2018-08-23T10:23:28.501Z,18.00
2018-08-23T10:25:58.470Z,18.15
2018-08-23T10:28:32.322Z,18.17
2018-08-23T10:31:00.986Z,17.27
2018-08-23T10:33:29.634Z,16.00
2018-08-23T10:35:58.302Z,20.27
2018-08-23T10:38:28.114Z,18.23
2018-08-23T10:41:02.279Z,17.57
2018-08-23T10:43:36.461Z,15.00
2018-08-23T10:46:05.677Z,15.70
2018-08-23T10:48:34.333Z,12.00
2018-08-23T10:51:03.030Z,15.27
2018-08-23T10:53:31.654Z,15.87
2018-08-23T10:56:00.340Z,17.50
2018-08-23T10:58:28.990Z,16.77
2018-08-23T11:00:57.642Z,16.70
2018-08-23T11:03:26.290Z,14.63
2018-08-23T11:05:54.950Z,12.03
2018-08-23T11:08:28.681Z,11.05
2018-08-23T11:11:02.696Z,11.70
2018-08-23T11:13:36.885Z,15.90
2018-08-23T11:16:10.879Z,14.55
2018-08-23T11:18:45.046Z,12.35
2018-08-23T11:21:14.830Z,12.37
2018-08-23T11:23:43.943Z,13.22
2018-08-23T11:26:19.077Z,14.53
2018-08-23T11:28:48.097Z,12.30
2018-08-23T11:31:22.502Z,10.68
2018-08-23T11:33:51.274Z,11.05
2018-08-23T11:36:19.945Z,11.28
2018-08-23T11:38:48.698Z,13.85
2018-08-23T11:41:17.626Z,11.18
2018-08-23T11:43:46.390Z,11.63
2018-08-23T11:46:19.230Z,11.40
2018-08-23T11:48:48.458Z,12.50
2018-08-23T11:51:17.862Z,14.17
2018-08-23T11:53:46.966Z,11.10
2018-08-23T11:56:15.618Z,13.07
2018-08-23T11:58:44.434Z,11.70
2018-08-23T12:01:14.489Z,11.48
2018-08-23T12:03:43.495Z,11.18
2018-08-23T12:06:13.237Z,11.48
2018-08-23T12:08:42.423Z,9.70
2018-08-23T12:11:11.133Z,8.60
2018-08-23T12:13:42.766Z,8.75
2018-08-23T12:16:11.438Z,8.38
2018-08-23T12:18:40.085Z,7.65
2018-08-23T12:21:08.744Z,7.62
2018-08-23T12:23:37.401Z,8.03
2018-08-23T12:26:06.078Z,7.75
2018-08-23T12:28:40.105Z,7.75
2018-08-23T12:31:08.753Z,8.05
2018-08-23T12:33:37.403Z,7.12
2018-08-23T12:36:06.996Z,7.53
2018-08-23T12:38:41.198Z,7.58
2018-08-23T12:41:15.158Z,8.40
2018-08-23T12:43:49.119Z,7.17
2018-08-23T12:46:18.063Z,7.85
2018-08-23T12:48:46.921Z,7.87
2018-08-23T12:51:15.577Z,7.10
2018-08-23T12:53:44.234Z,7.37
2018-08-23T12:56:12.882Z,7.08
2018-08-23T12:58:41.542Z,7.30
2018-08-23T13:01:10.187Z,5.90
2018-08-23T13:03:38.867Z,6.08
2018-08-23T13:06:07.535Z,6.97
2018-08-23T13:08:36.135Z,7.37
2018-08-23T13:11:04.815Z,8.38
2018-08-23T13:13:33.430Z,7.60
2018-08-23T13:16:02.074Z,6.83
2018-08-23T13:18:30.732Z,8.20
2018-08-23T13:20:59.382Z,7.30
2018-08-23T13:23:28.042Z,8.53
2018-08-23T13:25:58.441Z,8.43
2018-08-23T13:28:27.869Z,8.40
2018-08-23T13:30:56.513Z,7.97
2018-08-23T13:33:25.979Z,8.20
2018-08-23T13:35:54.614Z,7.75
2018-08-23T13:38:23.308Z,11.33
2018-08-23T13:40:51.946Z,11.73
2018-08-23T13:43:20.631Z,7.15
2018-08-23T13:45:49.270Z,7.33
2018-08-23T13:48:17.952Z,8.33
2018-08-23T13:50:46.573Z,7.75
2018-08-23T13:53:15.240Z,8.28
2018-08-23T13:55:43.878Z,8.03
2018-08-23T13:58:12.540Z,8.30
2018-08-23T14:00:41.866Z,9.90
2018-08-23T14:03:11.234Z,10.35
2018-08-23T14:05:41.004Z,8.90
2018-08-23T14:08:10.017Z,7.78
2018-08-23T14:10:38.665Z,7.80
2018-08-23T14:13:07.722Z,8.05
2018-08-23T14:15:41.752Z,11.50
2018-08-23T14:18:10.424Z,10.13
2018-08-23T14:20:39.138Z,10.55
2018-08-23T14:23:07.806Z,9.58
2018-08-23T14:25:36.474Z,9.90
2018-08-23T14:28:05.993Z,10.85
2018-08-23T14:30:34.866Z,9.18
2018-08-23T14:33:03.552Z,8.13
2018-08-23T14:35:32.186Z,9.18
2018-08-23T14:38:00.839Z,8.98
2018-08-23T14:40:29.529Z,8.53
2018-08-23T14:42:58.141Z,7.95
2018-08-23T14:45:30.352Z,7.25
2018-08-23T14:48:04.546Z,7.92
2018-08-23T14:50:34.313Z,6.60
2018-08-23T14:53:03.397Z,6.83
2018-08-23T14:55:37.493Z,7.15
2018-08-23T14:58:06.342Z,7.15
2018-08-23T15:00:34.994Z,7.03
2018-08-23T15:03:03.642Z,7.55
2018-08-23T15:05:32.538Z,6.05
2018-08-23T15:08:01.202Z,6.85
2018-08-23T15:10:29.849Z,6.80
2018-08-23T15:12:58.550Z,7.47
2018-08-23T15:15:32.530Z,6.80
2018-08-23T15:19:04.571Z,6.80
2018-08-23T15:21:33.227Z,8.80
2018-08-23T15:24:01.882Z,8.68
2018-08-23T15:33:33.389Z,7.72
2018-08-23T15:36:02.128Z,7.53
2018-08-23T15:38:30.761Z,7.00
2018-08-23T15:40:59.509Z,6.42
2018-08-23T15:43:28.070Z,6.08
2018-08-23T15:45:56.845Z,7.42
2018-08-23T15:48:25.457Z,7.30
2018-08-23T15:50:54.178Z,6.42
2018-08-23T15:53:22.842Z,7.47
2018-08-23T15:55:51.629Z,7.58
2018-08-23T15:58:20.154Z,7.43
2018-08-23T16:00:48.855Z,7.80
2018-08-23T16:03:17.496Z,7.40
2018-08-23T16:05:46.201Z,7.50
2018-08-23T16:08:14.864Z,6.90
2018-08-23T16:10:43.734Z,7.80
2018-08-23T16:13:13.929Z,8.37
2018-08-23T16:15:43.049Z,8.10
2018-08-23T16:18:17.203Z,8.03
2018-08-23T16:20:52.404Z,8.70
2018-08-23T16:23:21.094Z,9.70
2018-08-23T16:25:49.854Z,10.70
2018-08-23T16:28:18.506Z,9.90
2018-08-23T16:30:47.245Z,10.60
2018-08-23T16:33:15.902Z,10.90
2018-08-23T16:35:44.561Z,8.73
2018-08-23T16:38:13.286Z,8.30
2018-08-23T16:40:41.946Z,9.40
2018-08-23T16:43:10.585Z,11.10
2018-08-23T16:45:39.245Z,11.43
2018-08-23T16:48:07.894Z,11.43
2018-08-23T16:50:36.549Z,10.33
2018-08-23T16:53:05.288Z,9.53
2018-08-23T16:55:33.846Z,10.60
2018-08-23T16:58:02.501Z,9.90
2018-08-23T17:00:31.232Z,11.03
2018-08-23T17:02:59.918Z,10.00
2018-08-23T17:05:28.654Z,9.97
2018-08-23T17:07:57.314Z,11.80
2018-08-23T17:10:25.966Z,10.00
2018-08-23T17:12:54.619Z,10.20
2018-08-23T17:15:23.282Z,11.03
2018-08-23T17:17:56.358Z,9.00
2018-08-23T17:20:24.996Z,10.80
2018-08-23T17:22:53.738Z,11.50
2018-08-23T17:25:22.371Z,10.83
2018-08-23T17:27:51.026Z,11.40
2018-08-23T17:30:19.714Z,11.47
2018-08-23T17:32:48.414Z,10.30
2018-08-23T17:35:17.079Z,10.83
2018-08-23T17:37:45.755Z,12.30
2018-08-23T17:40:14.522Z,13.03
2018-08-23T17:42:44.418Z,11.83
2018-08-23T17:45:14.340Z,11.50
2018-08-23T17:47:43.006Z,13.23
2018-08-23T17:50:11.678Z,12.27
2018-08-23T17:52:40.346Z,15.23
2018-08-23T17:55:09.060Z,16.40
2018-08-23T17:57:37.718Z,14.07
2018-08-23T18:00:06.367Z,14.20
2018-08-23T18:02:35.069Z,14.53
2018-08-23T18:05:03.794Z,15.20
2018-08-23T18:07:32.471Z,13.80
2018-08-23T18:10:01.118Z,14.10
2018-08-23T18:12:29.785Z,14.73
2018-08-23T18:14:58.645Z,15.37
2018-08-23T18:17:27.310Z,15.13
2018-08-23T18:19:55.966Z,15.03
2018-08-23T18:22:24.627Z,14.83
2018-08-23T18:24:53.281Z,16.53
2018-08-23T18:27:21.954Z,16.53
2018-08-23T18:29:50.618Z,17.10
2018-08-23T18:32:19.345Z,17.87
2018-08-23T18:34:47.938Z,19.23
2018-08-23T18:37:16.657Z,16.13
2018-08-23T18:39:45.319Z,19.67
2018-08-23T18:42:13.985Z,19.73
2018-08-23T18:44:42.643Z,17.50
2018-08-23T18:47:11.310Z,18.03
2018-08-23T18:49:39.967Z,20.00
2018-08-23T18:52:08.650Z,16.93
2018-08-23T18:54:37.315Z,16.63
2018-08-23T18:57:06.217Z,16.70
2018-08-23T18:59:34.918Z,15.87
2018-08-23T19:02:03.667Z,16.43
2018-08-23T19:04:32.286Z,14.87
2018-08-23T19:07:00.958Z,15.53
2018-08-23T19:09:29.606Z,13.83
2018-08-23T19:11:58.277Z,14.37
2018-08-23T19:14:26.934Z,16.10
2018-08-23T19:17:00.994Z,15.40
2018-08-23T19:19:29.654Z,13.40
2018-08-23T19:21:58.318Z,15.00
2018-08-23T19:24:26.978Z,15.10
2018-08-23T19:26:55.638Z,13.20
2018-08-23T19:29:24.305Z,16.50
2018-08-23T19:31:53.137Z,16.20
2018-08-23T19:34:21.670Z,16.70
2018-08-23T19:36:50.331Z,16.80
2018-08-23T19:39:18.990Z,16.30
2018-08-23T19:41:47.655Z,18.43
2018-08-23T19:44:16.314Z,16.30
2018-08-23T19:46:50.358Z,16.43
2018-08-23T19:49:24.389Z,15.93
2018-08-23T19:51:53.082Z,15.97
2018-08-23T19:54:21.801Z,13.80
2018-08-23T19:56:50.462Z,14.50
2018-08-23T19:59:19.121Z,14.70
2018-08-23T20:01:47.793Z,13.90
2018-08-23T20:04:16.449Z,13.40
2018-08-23T20:06:45.116Z,12.47
2018-08-23T20:09:13.775Z,12.93
2018-08-23T20:11:42.431Z,12.30
2018-08-23T20:14:11.086Z,12.23
2018-08-23T20:16:39.740Z,12.80
2018-08-23T20:19:08.397Z,13.50
2018-08-23T20:21:37.057Z,13.63
2018-08-23T20:24:06.138Z,13.07
2018-08-23T20:26:34.802Z,13.30
2018-08-23T20:29:03.473Z,13.67
2018-08-23T20:31:32.130Z,13.73
2018-08-23T20:34:00.869Z,12.20
2018-08-23T20:36:29.538Z,12.47
2018-08-23T20:38:58.274Z,12.20
2018-08-23T20:41:26.898Z,12.20
2018-08-23T20:43:55.570Z,11.53
2018-08-23T20:46:24.469Z,12.33
2018-08-23T20:48:53.129Z,11.50
2018-08-23T20:51:21.781Z,12.07
2018-08-23T20:53:50.439Z,12.50
2018-08-23T20:56:19.107Z,11.03
2018-08-23T20:58:47.762Z,12.00
2018-08-23T21:01:16.413Z,11.60
2018-08-23T21:03:45.175Z,11.20
2018-08-23T21:06:13.765Z,11.30
2018-08-23T21:08:42.436Z,11.93
2018-08-23T21:11:11.100Z,11.50
2018-08-23T21:13:39.749Z,11.23
2018-08-23T21:16:08.410Z,10.07
2018-08-23T21:18:37.122Z,10.67
2018-08-23T21:21:05.978Z,10.60
2018-08-23T21:23:34.658Z,10.60
2018-08-23T21:26:03.334Z,10.57
2018-08-23T21:28:32.002Z,10.13
2018-08-23T21:31:00.673Z,10.27
2018-08-23T21:33:29.610Z,9.90
2018-08-23T21:35:58.537Z,10.57
2018-08-23T21:38:27.193Z,10.07
2018-08-23T21:40:55.907Z,9.50
2018-08-23T21:43:24.566Z,9.20
2018-08-23T21:45:53.222Z,8.97
2018-08-23T21:48:21.873Z,9.03
2018-08-23T21:50:50.558Z,8.50
2018-08-23T21:53:19.198Z,8.37
2018-08-23T21:55:47.870Z,9.60
2018-08-23T21:58:16.517Z,9.07
2018-08-23T22:00:50.734Z,7.73
2018-08-23T22:03:19.378Z,7.20
2018-08-23T22:05:48.021Z,7.43
2018-08-23T22:08:16.662Z,6.90
2018-08-23T22:10:45.423Z,6.47
2018-08-23T22:13:14.086Z,6.20
2018-08-23T22:15:47.286Z,6.70
2018-08-23T22:18:16.786Z,6.63
2018-08-23T22:20:45.433Z,6.30
2018-08-23T22:23:14.385Z,6.03
2018-08-23T22:25:43.042Z,5.70
2018-08-23T22:28:11.773Z,6.03
2018-08-23T22:30:41.228Z,5.70
2018-08-23T22:33:11.444Z,6.23
2018-08-23T22:35:40.363Z,5.63
2018-08-23T22:38:09.558Z,5.87
2018-08-23T22:40:38.470Z,5.60
2018-08-23T22:43:07.344Z,5.10
2018-08-23T22:45:36.176Z,5.47
2018-08-23T22:48:05.162Z,5.00
2018-08-23T22:50:33.813Z,5.27
2018-08-23T22:53:02.455Z,4.90
2018-08-23T22:55:31.197Z,4.60
2018-08-23T22:57:59.850Z,4.67
2018-08-23T23:00:33.914Z,5.10
2018-08-23T23:03:02.574Z,4.90
2018-08-23T23:05:31.228Z,4.53
2018-08-23T23:08:05.378Z,4.70
2018-08-23T23:10:34.025Z,4.60
2018-08-23T23:13:02.673Z,4.20
2018-08-23T23:15:31.323Z,4.20
2018-08-23T23:17:59.966Z,4.83
2018-08-23T23:20:28.621Z,4.03
2018-08-23T23:22:57.281Z,4.20
2018-08-23T23:25:25.935Z,4.87
2018-08-23T23:27:54.575Z,4.03
2018-08-23T23:30:23.230Z,4.10
2018-08-23T23:32:51.877Z,4.10
2018-08-23T23:35:20.543Z,4.60
2018-08-23T23:37:49.201Z,3.97
2018-08-23T23:40:17.844Z,4.20
2018-08-23T23:42:46.501Z,4.17
2018-08-23T23:45:15.154Z,4.07
2018-08-23T23:47:43.809Z,4.63
2018-08-23T23:50:12.458Z,4.40
2018-08-23T23:52:41.281Z,4.03
2018-08-23T23:55:09.929Z,4.13
2018-08-23T23:57:38.577Z,4.60
